KGNV/GNV METAR and TAF weather

Enter ICAO airport designator
Station Type Date Time Source
KGNV METAR 2020/08/14 00:53 UTC NOAA

KGNV 140053Z 00000KT 10SM CLR 25/24 A3002 RMK AO2 SLP162 T02500239


Station Type Date Time Source
KGNV Decoded METAR 2020/08/14 00:53 UTC NOAA

GAINESVILLE REGIONAL AIRPORT , FL, United States (KGNV) 29-42N 082-17W 45M
Aug 13, 2020 - 08:53 PM EDT / 2020.08.14 0053 UTC
Wind: Calm:0
Visibility: 10 mile(s):0
Sky conditions: clear
Temperature: 77.0 F (25.0 C)
Dew Point: 75.0 F (23.9 C)
Relative Humidity: 93%
Pressure (altimeter): 30.02 in. Hg (1016 hPa)
ob: KGNV 140053Z 00000KT 10SM CLR 25/24 A3002 RMK AO2 SLP162 T02500239
cycle: 1

Station Type Date Time Source
KGNV TAF 2020/08/13 21:06 UTC NOAA

TAF
AMD KGNV 132103Z 1321/1418 VRB06KT P6SM VCTS BKN040CB OVC250
TEMPO 1321/1323 VRB15G25KT 3SM TSRA OVC030CB
FM140000 19005KT P6SM VCSH SCT035 BKN090 OVC200
FM140400 00000KT P6SM SCT120 BKN250
FM141300 25003KT P6SM SCT025 SCT250

Example: see airport list